sensor_id;sensor_type;location;lat;lon;timestamp;P1;durP1;ratioP1;P2;durP2;ratioP2
73593;SDS011;64760;53.404;23.498;2023-08-06T00:01:06;17.58;;;11.88;;
73593;SDS011;64760;53.404;23.498;2023-08-06T00:03:48;16.10;;;11.60;;
73593;SDS011;64760;53.404;23.498;2023-08-06T00:06:14;18.55;;;11.98;;
73593;SDS011;64760;53.404;23.498;2023-08-06T00:08:41;14.18;;;10.68;;
73593;SDS011;64760;53.404;23.498;2023-08-06T00:11:07;16.98;;;11.38;;
73593;SDS011;64760;53.404;23.498;2023-08-06T00:13:33;15.05;;;10.93;;
73593;SDS011;64760;53.404;23.498;2023-08-06T00:16:09;17.85;;;11.63;;
73593;SDS011;64760;53.404;23.498;2023-08-06T00:18:36;18.65;;;12.32;;
73593;SDS011;64760;53.404;23.498;2023-08-06T00:21:03;17.30;;;11.75;;
73593;SDS011;64760;53.404;23.498;2023-08-06T00:23:29;19.73;;;11.90;;
73593;SDS011;64760;53.404;23.498;2023-08-06T00:25:56;16.95;;;11.60;;
73593;SDS011;64760;53.404;23.498;2023-08-06T00:28:22;17.50;;;11.27;;
73593;SDS011;64760;53.404;23.498;2023-08-06T00:30:54;18.52;;;12.32;;
73593;SDS011;64760;53.404;23.498;2023-08-06T00:33:21;18.40;;;11.63;;
73593;SDS011;64760;53.404;23.498;2023-08-06T00:35:48;16.45;;;11.32;;
73593;SDS011;64760;53.404;23.498;2023-08-06T00:38:14;15.65;;;11.75;;
73593;SDS011;64760;53.404;23.498;2023-08-06T00:40:40;17.23;;;12.48;;
73593;SDS011;64760;53.404;23.498;2023-08-06T00:43:07;20.95;;;13.23;;
73593;SDS011;64760;53.404;23.498;2023-08-06T00:45:34;17.88;;;11.48;;
73593;SDS011;64760;53.404;23.498;2023-08-06T00:48:03;17.42;;;12.27;;
73593;SDS011;64760;53.404;23.498;2023-08-06T00:50:30;19.02;;;12.48;;
73593;SDS011;64760;53.404;23.498;2023-08-06T00:52:57;17.75;;;11.70;;
73593;SDS011;64760;53.404;23.498;2023-08-06T00:57:50;18.17;;;11.00;;
73593;SDS011;64760;53.404;23.498;2023-08-06T01:00:19;15.88;;;12.18;;
73593;SDS011;64760;53.404;23.498;2023-08-06T01:02:47;15.13;;;11.40;;
73593;SDS011;64760;53.404;23.498;2023-08-06T01:05:14;17.20;;;11.40;;
73593;SDS011;64760;53.404;23.498;2023-08-06T01:10:38;16.60;;;11.80;;
73593;SDS011;64760;53.404;23.498;2023-08-06T01:13:24;14.75;;;10.95;;
73593;SDS011;64760;53.404;23.498;2023-08-06T01:16:02;17.13;;;11.70;;
73593;SDS011;64760;53.404;23.498;2023-08-06T01:18:31;15.85;;;11.15;;
73593;SDS011;64760;53.404;23.498;2023-08-06T01:20:58;15.15;;;11.23;;
73593;SDS011;64760;53.404;23.498;2023-08-06T01:23:24;18.30;;;11.90;;
73593;SDS011;64760;53.404;23.498;2023-08-06T01:26:14;13.85;;;11.05;;
73593;SDS011;64760;53.404;23.498;2023-08-06T01:29:06;18.15;;;11.70;;
73593;SDS011;64760;53.404;23.498;2023-08-06T01:31:38;15.52;;;11.27;;
73593;SDS011;64760;53.404;23.498;2023-08-06T01:34:07;16.75;;;11.18;;
73593;SDS011;64760;53.404;23.498;2023-08-06T01:36:36;17.23;;;11.73;;
73593;SDS011;64760;53.404;23.498;2023-08-06T01:39:04;14.98;;;10.52;;
73593;SDS011;64760;53.404;23.498;2023-08-06T01:41:30;14.68;;;10.75;;
73593;SDS011;64760;53.404;23.498;2023-08-06T01:43:57;17.88;;;11.48;;
73593;SDS011;64760;53.404;23.498;2023-08-06T01:46:23;16.48;;;11.02;;
73593;SDS011;64760;53.404;23.498;2023-08-06T01:48:51;16.27;;;11.48;;
73593;SDS011;64760;53.404;23.498;2023-08-06T01:51:17;13.85;;;10.63;;
73593;SDS011;64760;53.404;23.498;2023-08-06T01:53:44;15.40;;;11.07;;
73593;SDS011;64760;53.404;23.498;2023-08-06T01:56:10;16.30;;;10.73;;
73593;SDS011;64760;53.404;23.498;2023-08-06T01:58:36;15.52;;;11.35;;
73593;SDS011;64760;53.404;23.498;2023-08-06T02:01:02;15.63;;;10.98;;
73593;SDS011;64760;53.404;23.498;2023-08-06T02:03:29;15.57;;;11.13;;
73593;SDS011;64760;53.404;23.498;2023-08-06T02:05:55;16.75;;;10.77;;
73593;SDS011;64760;53.404;23.498;2023-08-06T02:08:22;15.05;;;11.50;;
73593;SDS011;64760;53.404;23.498;2023-08-06T02:10:48;13.25;;;10.50;;
73593;SDS011;64760;53.404;23.498;2023-08-06T02:13:15;14.25;;;11.02;;
73593;SDS011;64760;53.404;23.498;2023-08-06T02:15:44;16.27;;;11.48;;
73593;SDS011;64760;53.404;23.498;2023-08-06T02:18:13;14.52;;;10.85;;
73593;SDS011;64760;53.404;23.498;2023-08-06T02:20:41;16.10;;;11.40;;
73593;SDS011;64760;53.404;23.498;2023-08-06T02:23:07;15.57;;;11.45;;
73593;SDS011;64760;53.404;23.498;2023-08-06T02:25:34;15.10;;;12.00;;
73593;SDS011;64760;53.404;23.498;2023-08-06T02:30:27;16.92;;;12.07;;
73593;SDS011;64760;53.404;23.498;2023-08-06T02:32:54;17.38;;;11.77;;
73593;SDS011;64760;53.404;23.498;2023-08-06T02:35:20;16.77;;;11.68;;
73593;SDS011;64760;53.404;23.498;2023-08-06T02:37:46;17.10;;;11.48;;
73593;SDS011;64760;53.404;23.498;2023-08-06T02:40:12;15.15;;;12.20;;
73593;SDS011;64760;53.404;23.498;2023-08-06T02:42:39;17.38;;;11.45;;
73593;SDS011;64760;53.404;23.498;2023-08-06T02:45:05;16.33;;;11.65;;
73593;SDS011;64760;53.404;23.498;2023-08-06T02:49:59;15.00;;;11.55;;
73593;SDS011;64760;53.404;23.498;2023-08-06T02:52:25;13.63;;;10.55;;
73593;SDS011;64760;53.404;23.498;2023-08-06T02:54:52;15.32;;;11.40;;
73593;SDS011;64760;53.404;23.498;2023-08-06T02:57:18;17.17;;;11.55;;
73593;SDS011;64760;53.404;23.498;2023-08-06T03:02:18;18.27;;;12.50;;
73593;SDS011;64760;53.404;23.498;2023-08-06T03:04:54;17.20;;;12.15;;
73593;SDS011;64760;53.404;23.498;2023-08-06T03:07:24;16.40;;;12.05;;
73593;SDS011;64760;53.404;23.498;2023-08-06T03:09:57;14.45;;;10.98;;
73593;SDS011;64760;53.404;23.498;2023-08-06T03:12:24;16.80;;;11.73;;
73593;SDS011;64760;53.404;23.498;2023-08-06T03:14:50;15.55;;;10.85;;
73593;SDS011;64760;53.404;23.498;2023-08-06T03:17:17;14.48;;;10.77;;
73593;SDS011;64760;53.404;23.498;2023-08-06T03:19:43;16.55;;;11.35;;
73593;SDS011;64760;53.404;23.498;2023-08-06T03:22:11;15.80;;;11.73;;
73593;SDS011;64760;53.404;23.498;2023-08-06T03:27:05;18.02;;;11.88;;
73593;SDS011;64760;53.404;23.498;2023-08-06T03:29:32;14.27;;;10.98;;
73593;SDS011;64760;53.404;23.498;2023-08-06T03:32:00;15.77;;;12.25;;
73593;SDS011;64760;53.404;23.498;2023-08-06T03:34:27;15.93;;;11.93;;
73593;SDS011;64760;53.404;23.498;2023-08-06T03:36:54;17.40;;;12.20;;
73593;SDS011;64760;53.404;23.498;2023-08-06T03:39:20;17.48;;;11.93;;
73593;SDS011;64760;53.404;23.498;2023-08-06T03:41:46;16.38;;;11.65;;
73593;SDS011;64760;53.404;23.498;2023-08-06T03:44:13;16.85;;;12.00;;
73593;SDS011;64760;53.404;23.498;2023-08-06T03:46:40;15.32;;;11.68;;
73593;SDS011;64760;53.404;23.498;2023-08-06T03:49:08;16.98;;;12.57;;
73593;SDS011;64760;53.404;23.498;2023-08-06T03:51:34;16.88;;;12.40;;
73593;SDS011;64760;53.404;23.498;2023-08-06T03:54:01;17.45;;;13.18;;
73593;SDS011;64760;53.404;23.498;2023-08-06T03:56:28;16.00;;;11.23;;
73593;SDS011;64760;53.404;23.498;2023-08-06T03:58:54;18.85;;;12.43;;
73593;SDS011;64760;53.404;23.498;2023-08-06T04:01:20;18.10;;;12.68;;
73593;SDS011;64760;53.404;23.498;2023-08-06T04:06:14;16.17;;;11.70;;
73593;SDS011;64760;53.404;23.498;2023-08-06T04:08:42;20.80;;;12.15;;
73593;SDS011;64760;53.404;23.498;2023-08-06T04:11:08;17.33;;;11.45;;
73593;SDS011;64760;53.404;23.498;2023-08-06T04:13:34;15.00;;;12.25;;
73593;SDS011;64760;53.404;23.498;2023-08-06T04:16:01;16.15;;;11.32;;
73593;SDS011;64760;53.404;23.498;2023-08-06T04:18:29;16.30;;;11.18;;
73593;SDS011;64760;53.404;23.498;2023-08-06T04:20:55;14.77;;;11.93;;
73593;SDS011;64760;53.404;23.498;2023-08-06T04:23:23;17.08;;;11.57;;
73593;SDS011;64760;53.404;23.498;2023-08-06T04:25:51;16.58;;;11.30;;
73593;SDS011;64760;53.404;23.498;2023-08-06T04:28:17;16.77;;;11.40;;
73593;SDS011;64760;53.404;23.498;2023-08-06T04:30:44;13.40;;;11.25;;
73593;SDS011;64760;53.404;23.498;2023-08-06T04:33:10;15.13;;;10.82;;
73593;SDS011;64760;53.404;23.498;2023-08-06T04:35:37;16.00;;;11.80;;
73593;SDS011;64760;53.404;23.498;2023-08-06T04:38:03;16.98;;;12.00;;
73593;SDS011;64760;53.404;23.498;2023-08-06T04:42:59;14.18;;;11.32;;
73593;SDS011;64760;53.404;23.498;2023-08-06T04:45:28;15.45;;;11.75;;
73593;SDS011;64760;53.404;23.498;2023-08-06T04:47:54;15.85;;;11.13;;
73593;SDS011;64760;53.404;23.498;2023-08-06T04:50:20;15.75;;;11.23;;
73593;SDS011;64760;53.404;23.498;2023-08-06T04:52:46;13.55;;;11.45;;
73593;SDS011;64760;53.404;23.498;2023-08-06T04:55:13;13.82;;;10.75;;
73593;SDS011;64760;53.404;23.498;2023-08-06T04:57:39;12.55;;;10.52;;
73593;SDS011;64760;53.404;23.498;2023-08-06T05:00:05;13.52;;;10.65;;
73593;SDS011;64760;53.404;23.498;2023-08-06T05:02:32;13.63;;;10.85;;
73593;SDS011;64760;53.404;23.498;2023-08-06T05:05:00;12.05;;;10.38;;
73593;SDS011;64760;53.404;23.498;2023-08-06T05:07:26;16.60;;;10.57;;
73593;SDS011;64760;53.404;23.498;2023-08-06T05:09:52;14.93;;;10.80;;
73593;SDS011;64760;53.404;23.498;2023-08-06T05:12:19;14.85;;;10.23;;
73593;SDS011;64760;53.404;23.498;2023-08-06T05:14:46;14.82;;;10.32;;
73593;SDS011;64760;53.404;23.498;2023-08-06T05:17:12;11.35;;;9.63;;
73593;SDS011;64760;53.404;23.498;2023-08-06T05:19:39;13.25;;;10.13;;
73593;SDS011;64760;53.404;23.498;2023-08-06T05:22:05;14.57;;;10.50;;
73593;SDS011;64760;53.404;23.498;2023-08-06T05:24:31;14.10;;;9.65;;
73593;SDS011;64760;53.404;23.498;2023-08-06T05:26:58;12.98;;;9.02;;
73593;SDS011;64760;53.404;23.498;2023-08-06T05:29:24;12.23;;;10.10;;
73593;SDS011;64760;53.404;23.498;2023-08-06T05:31:50;15.05;;;10.98;;
73593;SDS011;64760;53.404;23.498;2023-08-06T05:34:17;11.68;;;9.98;;
73593;SDS011;64760;53.404;23.498;2023-08-06T05:36:43;14.48;;;9.45;;
73593;SDS011;64760;53.404;23.498;2023-08-06T05:39:10;11.38;;;9.57;;
73593;SDS011;64760;53.404;23.498;2023-08-06T05:41:36;14.98;;;9.65;;
73593;SDS011;64760;53.404;23.498;2023-08-06T05:44:03;12.10;;;9.20;;
73593;SDS011;64760;53.404;23.498;2023-08-06T05:46:29;12.30;;;8.68;;
73593;SDS011;64760;53.404;23.498;2023-08-06T06:03:26;9.43;;;8.05;;
73593;SDS011;64760;53.404;23.498;2023-08-06T06:06:00;11.13;;;8.77;;
73593;SDS011;64760;53.404;23.498;2023-08-06T06:08:41;10.18;;;7.85;;
73593;SDS011;64760;53.404;23.498;2023-08-06T06:11:07;9.93;;;8.10;;
73593;SDS011;64760;53.404;23.498;2023-08-06T06:13:34;13.52;;;8.23;;
73593;SDS011;64760;53.404;23.498;2023-08-06T06:16:00;11.48;;;7.85;;
73593;SDS011;64760;53.404;23.498;2023-08-06T06:18:27;11.63;;;8.80;;
73593;SDS011;64760;53.404;23.498;2023-08-06T06:20:55;11.77;;;9.23;;
73593;SDS011;64760;53.404;23.498;2023-08-06T06:25:49;9.85;;;8.23;;
73593;SDS011;64760;53.404;23.498;2023-08-06T06:28:19;11.13;;;8.15;;
73593;SDS011;64760;53.404;23.498;2023-08-06T06:30:46;11.13;;;8.30;;
73593;SDS011;64760;53.404;23.498;2023-08-06T06:33:13;12.18;;;8.32;;
73593;SDS011;64760;53.404;23.498;2023-08-06T06:35:42;12.18;;;7.63;;
73593;SDS011;64760;53.404;23.498;2023-08-06T06:38:08;11.40;;;7.88;;
73593;SDS011;64760;53.404;23.498;2023-08-06T06:40:35;12.63;;;8.20;;
73593;SDS011;64760;53.404;23.498;2023-08-06T06:43:01;9.65;;;7.97;;
73593;SDS011;64760;53.404;23.498;2023-08-06T06:49:19;12.93;;;7.95;;
73593;SDS011;64760;53.404;23.498;2023-08-06T06:54:34;13.15;;;7.63;;
73593;SDS011;64760;53.404;23.498;2023-08-06T06:57:01;12.85;;;8.02;;
73593;SDS011;64760;53.404;23.498;2023-08-06T06:59:28;9.48;;;7.47;;
73593;SDS011;64760;53.404;23.498;2023-08-06T07:01:57;8.85;;;7.82;;
73593;SDS011;64760;53.404;23.498;2023-08-06T07:04:26;12.10;;;7.90;;
73593;SDS011;64760;53.404;23.498;2023-08-06T07:06:53;8.73;;;7.82;;
73593;SDS011;64760;53.404;23.498;2023-08-06T07:09:20;12.35;;;8.90;;
73593;SDS011;64760;53.404;23.498;2023-08-06T07:11:46;13.23;;;8.35;;
73593;SDS011;64760;53.404;23.498;2023-08-06T07:14:13;9.32;;;8.18;;
73593;SDS011;64760;53.404;23.498;2023-08-06T07:16:40;13.43;;;8.35;;
73593;SDS011;64760;53.404;23.498;2023-08-06T07:19:06;12.05;;;7.90;;
73593;SDS011;64760;53.404;23.498;2023-08-06T07:21:33;10.90;;;8.02;;
73593;SDS011;64760;53.404;23.498;2023-08-06T07:23:59;11.10;;;7.63;;
73593;SDS011;64760;53.404;23.498;2023-08-06T07:26:26;11.55;;;8.80;;
73593;SDS011;64760;53.404;23.498;2023-08-06T07:28:52;12.63;;;8.00;;
73593;SDS011;64760;53.404;23.498;2023-08-06T07:31:19;10.77;;;9.02;;
73593;SDS011;64760;53.404;23.498;2023-08-06T07:33:45;13.93;;;8.32;;
73593;SDS011;64760;53.404;23.498;2023-08-06T07:36:12;10.65;;;8.10;;
73593;SDS011;64760;53.404;23.498;2023-08-06T07:38:40;10.90;;;8.00;;
73593;SDS011;64760;53.404;23.498;2023-08-06T07:41:07;10.82;;;8.20;;
73593;SDS011;64760;53.404;23.498;2023-08-06T07:43:34;8.55;;;7.30;;
73593;SDS011;64760;53.404;23.498;2023-08-06T07:48:28;9.63;;;8.05;;
73593;SDS011;64760;53.404;23.498;2023-08-06T07:50:55;11.32;;;7.82;;
73593;SDS011;64760;53.404;23.498;2023-08-06T07:53:22;10.27;;;7.88;;
73593;SDS011;64760;53.404;23.498;2023-08-06T07:55:53;9.25;;;7.57;;
73593;SDS011;64760;53.404;23.498;2023-08-06T07:58:20;10.63;;;8.05;;
73593;SDS011;64760;53.404;23.498;2023-08-06T08:00:47;9.25;;;7.45;;
73593;SDS011;64760;53.404;23.498;2023-08-06T08:03:14;13.23;;;7.85;;
73593;SDS011;64760;53.404;23.498;2023-08-06T08:05:42;12.80;;;7.70;;
73593;SDS011;64760;53.404;23.498;2023-08-06T08:08:09;10.77;;;7.82;;
73593;SDS011;64760;53.404;23.498;2023-08-06T08:10:36;11.95;;;8.00;;
73593;SDS011;64760;53.404;23.498;2023-08-06T08:13:03;10.70;;;8.38;;
73593;SDS011;64760;53.404;23.498;2023-08-06T08:15:30;11.45;;;7.97;;
73593;SDS011;64760;53.404;23.498;2023-08-06T08:17:58;13.73;;;8.50;;
73593;SDS011;64760;53.404;23.498;2023-08-06T08:20:25;12.85;;;8.13;;
73593;SDS011;64760;53.404;23.498;2023-08-06T08:22:57;11.07;;;7.80;;
73593;SDS011;64760;53.404;23.498;2023-08-06T08:25:27;9.80;;;8.50;;
73593;SDS011;64760;53.404;23.498;2023-08-06T08:27:54;9.30;;;7.45;;
73593;SDS011;64760;53.404;23.498;2023-08-06T08:30:21;15.27;;;8.15;;
73593;SDS011;64760;53.404;23.498;2023-08-06T08:32:48;11.88;;;8.15;;
73593;SDS011;64760;53.404;23.498;2023-08-06T08:35:15;11.48;;;8.05;;
73593;SDS011;64760;53.404;23.498;2023-08-06T08:37:42;9.65;;;7.78;;
73593;SDS011;64760;53.404;23.498;2023-08-06T08:40:09;10.73;;;7.80;;
73593;SDS011;64760;53.404;23.498;2023-08-06T08:42:37;13.85;;;8.02;;
73593;SDS011;64760;53.404;23.498;2023-08-06T08:45:08;12.02;;;7.95;;
73593;SDS011;64760;53.404;23.498;2023-08-06T08:47:42;9.98;;;8.13;;
73593;SDS011;64760;53.404;23.498;2023-08-06T08:50:09;11.85;;;7.88;;
73593;SDS011;64760;53.404;23.498;2023-08-06T08:52:43;11.82;;;8.82;;
73593;SDS011;64760;53.404;23.498;2023-08-06T08:55:11;14.95;;;8.80;;
73593;SDS011;64760;53.404;23.498;2023-08-06T08:57:40;12.52;;;9.65;;
73593;SDS011;64760;53.404;23.498;2023-08-06T09:02:33;10.73;;;8.57;;
73593;SDS011;64760;53.404;23.498;2023-08-06T09:05:00;13.52;;;9.27;;
73593;SDS011;64760;53.404;23.498;2023-08-06T09:07:32;17.85;;;9.18;;
73593;SDS011;64760;53.404;23.498;2023-08-06T09:15:54;16.58;;;9.93;;
73593;SDS011;64760;53.404;23.498;2023-08-06T09:18:27;11.65;;;8.63;;
73593;SDS011;64760;53.404;23.498;2023-08-06T09:20:56;13.15;;;9.38;;
73593;SDS011;64760;53.404;23.498;2023-08-06T09:23:30;14.52;;;9.10;;
73593;SDS011;64760;53.404;23.498;2023-08-06T09:25:57;20.52;;;9.60;;
73593;SDS011;64760;53.404;23.498;2023-08-06T09:30:52;13.63;;;8.82;;
73593;SDS011;64760;53.404;23.498;2023-08-06T09:33:22;19.10;;;8.60;;
73593;SDS011;64760;53.404;23.498;2023-08-06T09:35:49;10.05;;;7.88;;
73593;SDS011;64760;53.404;23.498;2023-08-06T09:38:16;13.93;;;9.40;;
73593;SDS011;64760;53.404;23.498;2023-08-06T09:40:43;12.13;;;8.57;;
73593;SDS011;64760;53.404;23.498;2023-08-06T09:43:09;14.25;;;8.43;;
73593;SDS011;64760;53.404;23.498;2023-08-06T09:45:38;10.70;;;8.20;;
73593;SDS011;64760;53.404;23.498;2023-08-06T09:48:08;14.75;;;9.65;;
73593;SDS011;64760;53.404;23.498;2023-08-06T09:50:39;12.73;;;11.30;;
73593;SDS011;64760;53.404;23.498;2023-08-06T09:53:11;12.73;;;7.38;;
73593;SDS011;64760;53.404;23.498;2023-08-06T09:55:38;9.07;;;7.30;;
73593;SDS011;64760;53.404;23.498;2023-08-06T09:58:05;11.23;;;7.38;;
73593;SDS011;64760;53.404;23.498;2023-08-06T10:00:33;12.70;;;7.47;;
73593;SDS011;64760;53.404;23.498;2023-08-06T10:03:00;9.68;;;7.32;;
73593;SDS011;64760;53.404;23.498;2023-08-06T10:05:30;10.45;;;7.68;;
73593;SDS011;64760;53.404;23.498;2023-08-06T10:08:00;13.88;;;7.00;;
73593;SDS011;64760;53.404;23.498;2023-08-06T10:10:28;10.40;;;7.25;;
73593;SDS011;64760;53.404;23.498;2023-08-06T10:12:55;13.10;;;7.82;;
73593;SDS011;64760;53.404;23.498;2023-08-06T10:15:26;10.93;;;7.43;;
73593;SDS011;64760;53.404;23.498;2023-08-06T10:17:54;11.68;;;7.30;;
73593;SDS011;64760;53.404;23.498;2023-08-06T10:20:23;14.45;;;7.10;;
73593;SDS011;64760;53.404;23.498;2023-08-06T10:22:59;10.05;;;6.93;;
73593;SDS011;64760;53.404;23.498;2023-08-06T10:25:30;14.77;;;7.43;;
73593;SDS011;64760;53.404;23.498;2023-08-06T10:27:57;11.43;;;7.15;;
73593;SDS011;64760;53.404;23.498;2023-08-06T10:30:31;10.88;;;7.57;;
73593;SDS011;64760;53.404;23.498;2023-08-06T10:32:59;9.70;;;6.32;;
73593;SDS011;64760;53.404;23.498;2023-08-06T10:37:58;9.07;;;6.82;;
73593;SDS011;64760;53.404;23.498;2023-08-06T10:40:26;8.90;;;7.75;;
73593;SDS011;64760;53.404;23.498;2023-08-06T10:42:52;11.00;;;6.85;;
73593;SDS011;64760;53.404;23.498;2023-08-06T10:45:18;11.98;;;7.15;;
73593;SDS011;64760;53.404;23.498;2023-08-06T10:47:45;12.50;;;7.10;;
73593;SDS011;64760;53.404;23.498;2023-08-06T10:50:13;10.90;;;7.45;;
73593;SDS011;64760;53.404;23.498;2023-08-06T10:52:44;13.38;;;7.35;;
73593;SDS011;64760;53.404;23.498;2023-08-06T10:55:22;12.80;;;7.15;;
73593;SDS011;64760;53.404;23.498;2023-08-06T10:57:50;10.52;;;6.82;;
73593;SDS011;64760;53.404;23.498;2023-08-06T11:00:18;10.35;;;6.78;;
73593;SDS011;64760;53.404;23.498;2023-08-06T11:02:44;9.52;;;7.40;;
73593;SDS011;64760;53.404;23.498;2023-08-06T11:05:13;9.48;;;6.80;;
73593;SDS011;64760;53.404;23.498;2023-08-06T11:07:39;10.00;;;7.05;;
73593;SDS011;64760;53.404;23.498;2023-08-06T11:10:07;11.52;;;6.82;;
73593;SDS011;64760;53.404;23.498;2023-08-06T11:12:34;12.40;;;7.05;;
73593;SDS011;64760;53.404;23.498;2023-08-06T11:15:03;7.38;;;6.35;;
73593;SDS011;64760;53.404;23.498;2023-08-06T11:17:31;9.98;;;6.75;;
73593;SDS011;64760;53.404;23.498;2023-08-06T11:19:59;9.70;;;5.93;;
73593;SDS011;64760;53.404;23.498;2023-08-06T11:22:26;9.20;;;6.32;;
73593;SDS011;64760;53.404;23.498;2023-08-06T11:24:53;8.63;;;6.40;;
73593;SDS011;64760;53.404;23.498;2023-08-06T11:27:20;9.65;;;6.35;;
73593;SDS011;64760;53.404;23.498;2023-08-06T11:29:47;10.88;;;6.63;;
73593;SDS011;64760;53.404;23.498;2023-08-06T11:32:13;8.90;;;6.40;;
73593;SDS011;64760;53.404;23.498;2023-08-06T11:37:43;10.85;;;7.03;;
73593;SDS011;64760;53.404;23.498;2023-08-06T11:40:14;12.25;;;6.75;;
73593;SDS011;64760;53.404;23.498;2023-08-06T11:42:42;10.80;;;6.40;;
73593;SDS011;64760;53.404;23.498;2023-08-06T11:45:09;12.18;;;7.53;;
73593;SDS011;64760;53.404;23.498;2023-08-06T11:47:39;8.65;;;6.15;;
73593;SDS011;64760;53.404;23.498;2023-08-06T11:50:09;9.32;;;6.95;;
73593;SDS011;64760;53.404;23.498;2023-08-06T11:52:47;9.13;;;6.50;;
73593;SDS011;64760;53.404;23.498;2023-08-06T11:55:13;10.77;;;6.38;;
73593;SDS011;64760;53.404;23.498;2023-08-06T11:57:43;9.88;;;6.53;;
73593;SDS011;64760;53.404;23.498;2023-08-06T12:00:11;9.57;;;6.30;;
73593;SDS011;64760;53.404;23.498;2023-08-06T12:02:43;8.20;;;6.43;;
73593;SDS011;64760;53.404;23.498;2023-08-06T12:05:12;11.00;;;7.85;;
73593;SDS011;64760;53.404;23.498;2023-08-06T12:07:44;17.48;;;9.40;;
73593;SDS011;64760;53.404;23.498;2023-08-06T12:10:13;11.73;;;6.97;;
73593;SDS011;64760;53.404;23.498;2023-08-06T12:12:39;9.15;;;7.03;;
73593;SDS011;64760;53.404;23.498;2023-08-06T12:15:06;9.65;;;7.03;;
73593;SDS011;64760;53.404;23.498;2023-08-06T12:17:34;11.52;;;6.95;;
73593;SDS011;64760;53.404;23.498;2023-08-06T12:20:02;11.07;;;7.10;;
73593;SDS011;64760;53.404;23.498;2023-08-06T12:25:24;9.65;;;6.75;;
73593;SDS011;64760;53.404;23.498;2023-08-06T12:27:51;13.38;;;7.30;;
73593;SDS011;64760;53.404;23.498;2023-08-06T12:32:44;9.25;;;6.38;;
73593;SDS011;64760;53.404;23.498;2023-08-06T12:35:11;8.38;;;6.30;;
73593;SDS011;64760;53.404;23.498;2023-08-06T12:37:37;9.98;;;7.55;;
73593;SDS011;64760;53.404;23.498;2023-08-06T12:40:08;10.05;;;6.65;;
73593;SDS011;64760;53.404;23.498;2023-08-06T12:45:01;11.23;;;6.20;;
73593;SDS011;64760;53.404;23.498;2023-08-06T12:47:28;11.45;;;6.78;;
73593;SDS011;64760;53.404;23.498;2023-08-06T12:49:55;8.30;;;5.70;;
73593;SDS011;64760;53.404;23.498;2023-08-06T12:52:22;7.40;;;6.50;;
73593;SDS011;64760;53.404;23.498;2023-08-06T12:54:48;6.55;;;5.70;;
73593;SDS011;64760;53.404;23.498;2023-08-06T12:57:14;10.27;;;6.47;;
73593;SDS011;64760;53.404;23.498;2023-08-06T12:59:41;11.13;;;6.97;;
73593;SDS011;64760;53.404;23.498;2023-08-06T13:02:07;7.18;;;6.40;;
73593;SDS011;64760;53.404;23.498;2023-08-06T13:04:34;12.23;;;6.75;;
73593;SDS011;64760;53.404;23.498;2023-08-06T13:07:00;8.38;;;6.65;;
73593;SDS011;64760;53.404;23.498;2023-08-06T13:11:53;11.05;;;6.68;;
73593;SDS011;64760;53.404;23.498;2023-08-06T13:14:20;9.18;;;6.55;;
73593;SDS011;64760;53.404;23.498;2023-08-06T13:16:46;10.38;;;7.28;;
73593;SDS011;64760;53.404;23.498;2023-08-06T13:24:06;9.35;;;7.00;;
73593;SDS011;64760;53.404;23.498;2023-08-06T13:26:35;11.57;;;7.88;;
73593;SDS011;64760;53.404;23.498;2023-08-06T13:29:05;13.48;;;7.22;;
73593;SDS011;64760;53.404;23.498;2023-08-06T13:31:33;10.98;;;7.18;;
73593;SDS011;64760;53.404;23.498;2023-08-06T13:36:26;11.38;;;7.20;;
73593;SDS011;64760;53.404;23.498;2023-08-06T13:39:01;13.63;;;7.55;;
73593;SDS011;64760;53.404;23.498;2023-08-06T13:41:29;8.55;;;6.68;;
73593;SDS011;64760;53.404;23.498;2023-08-06T13:46:21;10.73;;;7.32;;
73593;SDS011;64760;53.404;23.498;2023-08-06T13:48:48;11.77;;;7.00;;
73593;SDS011;64760;53.404;23.498;2023-08-06T13:54:57;9.55;;;7.80;;
73593;SDS011;64760;53.404;23.498;2023-08-06T13:57:23;8.65;;;6.93;;
73593;SDS011;64760;53.404;23.498;2023-08-06T14:02:16;11.30;;;7.32;;
73593;SDS011;64760;53.404;23.498;2023-08-06T14:04:43;10.65;;;9.05;;
73593;SDS011;64760;53.404;23.498;2023-08-06T14:07:09;10.65;;;8.38;;
73593;SDS011;64760;53.404;23.498;2023-08-06T14:09:38;12.70;;;9.27;;
73593;SDS011;64760;53.404;23.498;2023-08-06T14:12:06;9.90;;;8.90;;
73593;SDS011;64760;53.404;23.498;2023-08-06T14:14:32;13.02;;;9.85;;
73593;SDS011;64760;53.404;23.498;2023-08-06T14:16:59;9.95;;;8.23;;
73593;SDS011;64760;53.404;23.498;2023-08-06T14:19:27;13.32;;;9.02;;
73593;SDS011;64760;53.404;23.498;2023-08-06T14:21:54;9.75;;;7.90;;
73593;SDS011;64760;53.404;23.498;2023-08-06T14:24:21;14.57;;;8.55;;
73593;SDS011;64760;53.404;23.498;2023-08-06T14:26:47;15.63;;;8.95;;
73593;SDS011;64760;53.404;23.498;2023-08-06T14:29:14;13.60;;;8.82;;
73593;SDS011;64760;53.404;23.498;2023-08-06T14:31:40;12.27;;;8.45;;
73593;SDS011;64760;53.404;23.498;2023-08-06T14:34:07;10.98;;;9.02;;
73593;SDS011;64760;53.404;23.498;2023-08-06T14:36:33;12.88;;;9.77;;
73593;SDS011;64760;53.404;23.498;2023-08-06T14:39:00;11.75;;;8.50;;
73593;SDS011;64760;53.404;23.498;2023-08-06T14:41:26;12.23;;;8.13;;
73593;SDS011;64760;53.404;23.498;2023-08-06T14:43:53;9.70;;;8.10;;
73593;SDS011;64760;53.404;23.498;2023-08-06T14:46:20;11.10;;;8.63;;
73593;SDS011;64760;53.404;23.498;2023-08-06T14:51:12;10.63;;;7.78;;
73593;SDS011;64760;53.404;23.498;2023-08-06T14:56:05;10.88;;;7.43;;
73593;SDS011;64760;53.404;23.498;2023-08-06T14:58:32;9.40;;;8.15;;
73593;SDS011;64760;53.404;23.498;2023-08-06T15:00:58;12.68;;;7.85;;
73593;SDS011;64760;53.404;23.498;2023-08-06T15:03:24;9.10;;;7.82;;
73593;SDS011;64760;53.404;23.498;2023-08-06T15:08:17;10.95;;;8.18;;
73593;SDS011;64760;53.404;23.498;2023-08-06T15:10:49;12.20;;;8.68;;
73593;SDS011;64760;53.404;23.498;2023-08-06T15:13:17;13.75;;;9.52;;
73593;SDS011;64760;53.404;23.498;2023-08-06T15:15:45;9.75;;;8.80;;
73593;SDS011;64760;53.404;23.498;2023-08-06T15:18:13;11.82;;;9.05;;
73593;SDS011;64760;53.404;23.498;2023-08-06T15:20:39;9.52;;;8.63;;
73593;SDS011;64760;53.404;23.498;2023-08-06T15:23:06;10.68;;;9.40;;
73593;SDS011;64760;53.404;23.498;2023-08-06T15:25:32;13.55;;;10.98;;
73593;SDS011;64760;53.404;23.498;2023-08-06T15:27:58;10.43;;;9.13;;
73593;SDS011;64760;53.404;23.498;2023-08-06T15:30:25;10.60;;;9.60;;
73593;SDS011;64760;53.404;23.498;2023-08-06T15:32:51;11.48;;;9.20;;
73593;SDS011;64760;53.404;23.498;2023-08-06T15:35:17;10.90;;;9.35;;
73593;SDS011;64760;53.404;23.498;2023-08-06T15:37:44;11.00;;;8.57;;
73593;SDS011;64760;53.404;23.498;2023-08-06T15:40:13;14.55;;;9.23;;
73593;SDS011;64760;53.404;23.498;2023-08-06T15:42:39;16.08;;;9.43;;
73593;SDS011;64760;53.404;23.498;2023-08-06T15:45:06;11.57;;;8.38;;
73593;SDS011;64760;53.404;23.498;2023-08-06T15:47:33;10.80;;;8.48;;
73593;SDS011;64760;53.404;23.498;2023-08-06T15:50:08;14.32;;;8.63;;
73593;SDS011;64760;53.404;23.498;2023-08-06T15:52:35;9.27;;;8.25;;
73593;SDS011;64760;53.404;23.498;2023-08-06T15:55:02;12.68;;;8.60;;
73593;SDS011;64760;53.404;23.498;2023-08-06T15:57:32;13.32;;;7.97;;